createdAt,value
2018-07-08T00:00:18.606Z,4.10
2018-07-08T00:02:47.342Z,3.27
2018-07-08T00:05:16.263Z,3.25
2018-07-08T00:07:45.916Z,4.22
2018-07-08T00:10:14.650Z,3.37
2018-07-08T00:12:43.763Z,4.35
2018-07-08T00:15:12.611Z,3.60
2018-07-08T00:17:41.506Z,3.40
2018-07-08T00:20:10.394Z,3.40
2018-07-08T00:22:39.452Z,3.80
2018-07-08T00:25:08.353Z,4.08
2018-07-08T00:27:37.978Z,3.60
2018-07-08T00:30:06.944Z,4.50
2018-07-08T00:32:35.761Z,3.10
2018-07-08T00:35:05.269Z,3.40
2018-07-08T00:37:34.566Z,4.05
2018-07-08T00:40:03.360Z,3.20
2018-07-08T00:42:32.164Z,3.47
2018-07-08T00:45:01.166Z,3.45
2018-07-08T00:47:30.048Z,4.78
2018-07-08T00:49:58.921Z,2.95
2018-07-08T00:52:27.657Z,5.42
2018-07-08T00:54:56.438Z,4.00
2018-07-08T00:57:25.404Z,3.52
2018-07-08T00:59:54.716Z,3.90
2018-07-08T01:02:23.619Z,4.55
2018-07-08T01:04:52.346Z,4.17
2018-07-08T01:07:21.167Z,4.30
2018-07-08T01:09:49.919Z,4.85
2018-07-08T01:12:18.761Z,4.37
2018-07-08T01:14:47.830Z,3.95
2018-07-08T01:17:16.595Z,4.15
2018-07-08T01:19:45.825Z,3.92
2018-07-08T01:22:14.851Z,4.20
2018-07-08T01:24:44.092Z,4.17
2018-07-08T01:27:12.912Z,4.20
2018-07-08T01:29:41.765Z,4.58
2018-07-08T01:32:10.544Z,3.80
2018-07-08T01:34:39.601Z,4.35
2018-07-08T01:37:08.459Z,3.98
2018-07-08T01:39:37.460Z,5.80
2018-07-08T01:42:06.725Z,4.03
2018-07-08T01:44:35.517Z,4.00
2018-07-08T01:47:04.341Z,5.70
2018-07-08T01:49:33.031Z,3.20
2018-07-08T01:52:01.719Z,4.60
2018-07-08T01:54:31.176Z,4.10
2018-07-08T01:56:59.996Z,4.45
2018-07-08T01:59:28.925Z,4.65
2018-07-08T02:01:57.707Z,4.85
2018-07-08T02:04:26.591Z,4.33
2018-07-08T02:06:55.822Z,5.87
2018-07-08T02:09:25.296Z,4.28
2018-07-08T02:11:54.256Z,4.75
2018-07-08T02:14:24.382Z,4.15
2018-07-08T02:16:53.571Z,5.15
2018-07-08T02:19:22.329Z,5.25
2018-07-08T02:21:53.098Z,5.12
2018-07-08T02:24:21.795Z,4.78
2018-07-08T02:26:51.900Z,6.12
2018-07-08T02:29:20.625Z,4.90
2018-07-08T02:31:50.331Z,5.15
2018-07-08T02:34:19.081Z,5.00
2018-07-08T02:36:48.573Z,4.78
2018-07-08T02:39:17.380Z,5.85
2018-07-08T02:41:46.232Z,5.33
2018-07-08T02:44:15.029Z,5.50
2018-07-08T02:46:43.846Z,5.22
2018-07-08T02:49:12.743Z,4.75
2018-07-08T02:51:41.633Z,4.90
2018-07-08T02:54:10.449Z,5.00
2018-07-08T02:56:39.177Z,5.95
2018-07-08T02:59:07.928Z,5.12
2018-07-08T03:01:36.710Z,5.20
2018-07-08T03:04:05.469Z,6.35
2018-07-08T03:06:34.389Z,5.25
2018-07-08T03:09:03.356Z,5.53
2018-07-08T03:11:32.460Z,6.12
2018-07-08T03:14:01.165Z,4.95
2018-07-08T03:16:29.954Z,5.72
2018-07-08T03:18:58.793Z,5.75
2018-07-08T03:21:27.471Z,5.20
2018-07-08T03:23:57.460Z,5.40
2018-07-08T03:26:26.240Z,6.30
2018-07-08T03:28:55.007Z,5.80
2018-07-08T03:31:23.789Z,5.70
2018-07-08T03:33:52.831Z,5.35
2018-07-08T03:36:21.486Z,5.45
2018-07-08T03:38:50.149Z,5.65
2018-07-08T03:41:18.914Z,6.40
2018-07-08T03:43:47.727Z,5.45
2018-07-08T03:46:16.514Z,5.20
2018-07-08T03:48:45.612Z,5.85
2018-07-08T03:51:14.523Z,6.50
2018-07-08T03:53:43.397Z,6.62
2018-07-08T03:56:12.163Z,6.60
2018-07-08T03:58:40.869Z,7.00
2018-07-08T04:01:09.803Z,6.10
2018-07-08T04:03:38.580Z,6.62
2018-07-08T04:06:07.438Z,5.85
2018-07-08T04:08:36.128Z,7.10
2018-07-08T04:11:05.366Z,6.33
2018-07-08T04:13:34.049Z,6.75
2018-07-08T04:16:02.894Z,5.92
2018-07-08T04:18:31.583Z,7.10
2018-07-08T04:21:02.113Z,6.53
2018-07-08T04:23:30.795Z,6.42
2018-07-08T04:25:59.757Z,6.65
2018-07-08T04:28:28.473Z,6.00
2018-07-08T04:30:57.958Z,6.72
2018-07-08T04:33:26.781Z,5.33
2018-07-08T04:35:55.832Z,5.83
2018-07-08T04:38:24.587Z,5.28
2018-07-08T04:40:53.415Z,4.90
2018-07-08T04:43:22.127Z,5.40
2018-07-08T04:45:51.232Z,5.87
2018-07-08T04:48:20.078Z,5.50
2018-07-08T04:50:49.125Z,5.67
2018-07-08T04:53:17.897Z,5.95
2018-07-08T04:55:46.752Z,5.20
2018-07-08T04:58:15.438Z,5.53
2018-07-08T05:00:44.232Z,4.40
2018-07-08T05:03:12.948Z,4.27
2018-07-08T05:05:41.677Z,3.70
2018-07-08T05:08:10.393Z,5.50
2018-07-08T05:10:39.092Z,4.20
2018-07-08T05:13:07.965Z,3.97
2018-07-08T05:15:36.692Z,4.33
2018-07-08T05:18:06.004Z,3.93
2018-07-08T05:20:35.223Z,4.60
2018-07-08T05:23:04.106Z,3.10
2018-07-08T05:25:32.932Z,3.27
2018-07-08T05:28:01.786Z,4.20
2018-07-08T05:30:30.618Z,4.13
2018-07-08T05:32:59.420Z,3.37
2018-07-08T05:35:28.186Z,3.60
2018-07-08T05:37:56.992Z,3.10
2018-07-08T05:40:25.824Z,2.80
2018-07-08T05:42:54.708Z,3.30
2018-07-08T05:45:23.557Z,3.50
2018-07-08T05:47:52.309Z,3.20
2018-07-08T05:50:21.153Z,3.00
2018-07-08T05:52:50.413Z,3.17
2018-07-08T05:55:19.081Z,3.23
2018-07-08T05:57:47.852Z,2.80
2018-07-08T06:00:16.619Z,3.23
2018-07-08T06:02:45.435Z,2.63
2018-07-08T06:05:14.130Z,3.30
2018-07-08T06:07:42.823Z,3.30
2018-07-08T06:10:11.694Z,2.97
2018-07-08T06:12:40.303Z,2.00
2018-07-08T06:15:09.099Z,2.50
2018-07-08T06:17:37.951Z,2.50
2018-07-08T06:20:09.770Z,3.13
2018-07-08T06:22:39.062Z,2.47
2018-07-08T06:25:07.902Z,3.17
2018-07-08T06:27:36.778Z,3.63
2018-07-08T06:30:06.727Z,4.00
2018-07-08T06:32:35.516Z,2.53
2018-07-08T06:35:04.376Z,2.73
2018-07-08T06:37:33.060Z,3.20
2018-07-08T06:40:01.794Z,2.93
2018-07-08T06:42:30.550Z,3.67
2018-07-08T06:44:59.292Z,4.13
2018-07-08T06:47:28.150Z,3.47
2018-07-08T06:49:56.885Z,2.50
2018-07-08T06:52:25.623Z,2.90
2018-07-08T06:54:54.453Z,3.53
2018-07-08T06:57:23.277Z,3.63
2018-07-08T06:59:52.127Z,2.60
2018-07-08T07:02:21.216Z,2.03
2018-07-08T07:04:49.923Z,3.20
2018-07-08T07:07:18.659Z,2.53
2018-07-08T07:09:47.391Z,3.90
2018-07-08T07:12:16.475Z,3.73
2018-07-08T07:14:45.187Z,3.23
2018-07-08T07:17:14.121Z,2.80
2018-07-08T07:19:43.073Z,3.20
2018-07-08T07:22:12.075Z,3.10
2018-07-08T07:24:40.980Z,2.77
2018-07-08T07:27:09.732Z,3.70
2018-07-08T07:29:38.427Z,3.30
2018-07-08T07:32:07.288Z,3.60
2018-07-08T07:34:36.158Z,3.80
2018-07-08T07:37:04.988Z,2.70
2018-07-08T07:39:33.724Z,3.40
2018-07-08T07:42:02.541Z,2.90
2018-07-08T07:44:31.386Z,3.00
2018-07-08T07:47:00.322Z,2.20
2018-07-08T07:49:29.183Z,2.33
2018-07-08T07:51:58.111Z,2.43
2018-07-08T07:54:26.988Z,3.07
2018-07-08T07:56:55.799Z,2.77
2018-07-08T07:59:24.483Z,2.37
2018-07-08T08:01:53.271Z,2.60
2018-07-08T08:04:22.419Z,2.17
2018-07-08T08:06:51.270Z,2.93
2018-07-08T08:09:20.657Z,2.60
2018-07-08T08:11:49.509Z,2.47
2018-07-08T08:14:18.635Z,1.70
2018-07-08T08:16:47.416Z,2.10
2018-07-08T08:19:16.182Z,1.67
2018-07-08T08:21:45.123Z,2.17
2018-07-08T08:24:13.997Z,2.20
2018-07-08T08:26:42.679Z,1.90
2018-07-08T08:29:11.361Z,1.87
2018-07-08T08:31:40.154Z,2.23
2018-07-08T08:35:12.535Z,2.20
2018-07-08T08:37:43.376Z,2.13
2018-07-08T08:40:12.987Z,1.40
2018-07-08T08:42:41.656Z,2.20
2018-07-08T08:45:11.489Z,1.50
2018-07-08T08:47:40.203Z,1.60
2018-07-08T08:50:09.996Z,1.40
2018-07-08T08:52:38.863Z,1.67
2018-07-08T08:55:08.641Z,1.20
2018-07-08T08:57:37.433Z,1.13
2018-07-08T09:00:09.779Z,1.30
2018-07-08T09:02:38.592Z,1.50
2018-07-08T09:05:07.615Z,1.43
2018-07-08T09:07:36.445Z,1.30
2018-07-08T09:10:05.421Z,1.87
2018-07-08T09:12:33.861Z,1.40
2018-07-08T09:15:02.607Z,1.10
2018-07-08T09:17:31.663Z,1.13
2018-07-08T09:20:00.984Z,1.00
2018-07-08T09:22:29.886Z,1.20
2018-07-08T09:24:58.643Z,1.00
2018-07-08T09:27:28.692Z,1.10
2018-07-08T09:29:57.477Z,2.73
2018-07-08T09:32:26.373Z,1.40
2018-07-08T09:34:55.188Z,1.00
2018-07-08T09:37:23.932Z,0.93
2018-07-08T09:39:52.723Z,1.87
2018-07-08T09:42:21.608Z,1.27
2018-07-08T09:44:50.826Z,0.87
2018-07-08T09:47:19.823Z,1.33
2018-07-08T09:49:48.600Z,1.10
2018-07-08T09:52:17.063Z,1.40
2018-07-08T09:54:46.530Z,1.00
2018-07-08T09:57:15.470Z,0.70
2018-07-08T09:59:44.682Z,0.87
2018-07-08T10:02:13.818Z,0.90
2018-07-08T10:04:42.646Z,1.10
2018-07-08T10:07:11.364Z,1.00
2018-07-08T10:09:40.433Z,1.03
2018-07-08T10:12:09.195Z,1.20
2018-07-08T10:14:38.011Z,1.00
2018-07-08T10:17:06.876Z,0.87
2018-07-08T10:19:35.836Z,1.13
2018-07-08T10:22:04.451Z,1.30
2018-07-08T10:24:33.271Z,1.30
2018-07-08T10:27:13.218Z,1.00
2018-07-08T10:29:43.114Z,0.90
2018-07-08T10:32:11.820Z,1.00
2018-07-08T10:34:40.557Z,1.47
2018-07-08T10:37:09.447Z,0.83
2018-07-08T10:39:38.274Z,1.33
2018-07-08T10:42:07.595Z,1.23
2018-07-08T10:44:36.965Z,0.93
2018-07-08T10:47:05.879Z,1.30
2018-07-08T10:49:34.880Z,2.60
2018-07-08T10:52:03.639Z,0.97
2018-07-08T10:54:32.351Z,0.90
2018-07-08T10:57:01.418Z,1.10
2018-07-08T10:59:30.332Z,0.80
2018-07-08T11:01:59.362Z,1.10
2018-07-08T11:04:29.030Z,1.07
2018-07-08T11:06:58.070Z,1.30
2018-07-08T11:09:27.142Z,1.37
2018-07-08T11:11:56.069Z,1.20
2018-07-08T11:14:24.966Z,1.00
2018-07-08T11:16:55.630Z,1.37
2018-07-08T11:19:24.382Z,1.63
2018-07-08T11:21:53.805Z,1.40
2018-07-08T11:24:22.511Z,1.70
2018-07-08T11:26:51.386Z,1.10
2018-07-08T11:29:20.147Z,1.37
2018-07-08T11:31:49.222Z,0.90
2018-07-08T11:34:18.511Z,1.00
2018-07-08T11:36:47.364Z,1.30
2018-07-08T11:39:16.522Z,1.13
2018-07-08T11:41:45.550Z,0.87
2018-07-08T11:44:14.321Z,0.90
2018-07-08T11:46:43.067Z,1.03
2018-07-08T11:49:11.735Z,1.30
2018-07-08T11:51:40.907Z,0.97
2018-07-08T11:54:09.668Z,0.80
2018-07-08T11:56:38.565Z,1.00
2018-07-08T11:59:07.354Z,1.00
2018-07-08T12:01:36.198Z,1.27
2018-07-08T12:04:04.959Z,1.77
2018-07-08T12:06:33.677Z,0.87
2018-07-08T12:09:02.668Z,1.30
2018-07-08T12:11:31.381Z,0.80
2018-07-08T12:14:00.038Z,1.00
2018-07-08T12:16:29.079Z,0.80
2018-07-08T12:18:57.833Z,1.20
2018-07-08T12:21:26.577Z,1.00
2018-07-08T12:23:55.432Z,0.87
2018-07-08T12:26:24.239Z,1.10
2018-07-08T12:28:53.050Z,1.07
2018-07-08T12:31:21.851Z,1.20
2018-07-08T12:33:51.500Z,1.47
2018-07-08T12:36:20.608Z,1.40
2018-07-08T12:38:49.430Z,1.13
2018-07-08T12:41:18.884Z,1.10
2018-07-08T12:43:47.725Z,1.30
2018-07-08T12:46:16.640Z,1.37
2018-07-08T12:48:45.429Z,1.23
2018-07-08T12:51:14.227Z,1.57
2018-07-08T12:53:43.335Z,1.13
2018-07-08T12:56:12.135Z,1.10
2018-07-08T12:58:41.077Z,1.30
2018-07-08T13:01:10.049Z,1.33
2018-07-08T13:03:38.774Z,1.13
2018-07-08T13:06:07.588Z,1.10
2018-07-08T13:08:36.540Z,1.17
2018-07-08T13:11:05.251Z,0.97
2018-07-08T13:13:33.916Z,1.23
2018-07-08T13:16:02.648Z,1.20
2018-07-08T13:18:31.279Z,1.67
2018-07-08T13:21:00.170Z,1.67
2018-07-08T13:23:28.939Z,1.70
2018-07-08T13:25:57.619Z,1.40
2018-07-08T13:28:26.314Z,1.47
2018-07-08T13:30:55.338Z,1.13
2018-07-08T13:33:23.982Z,1.93
2018-07-08T13:35:53.140Z,1.20
2018-07-08T13:38:21.797Z,1.10
2018-07-08T13:40:50.545Z,1.30
2018-07-08T13:43:19.237Z,1.70
2018-07-08T13:45:48.365Z,1.20
2018-07-08T13:48:17.136Z,1.30
2018-07-08T13:50:46.127Z,1.83
2018-07-08T13:53:15.139Z,1.33
2018-07-08T13:55:43.947Z,1.20
2018-07-08T13:58:12.808Z,1.13
2018-07-08T14:00:41.616Z,1.43
2018-07-08T14:03:10.281Z,1.73
2018-07-08T14:05:39.056Z,1.73
2018-07-08T14:08:07.869Z,1.40
2018-07-08T14:10:37.131Z,1.30
2018-07-08T14:13:05.837Z,0.90
2018-07-08T14:15:34.704Z,1.23
2018-07-08T14:18:03.543Z,1.20
2018-07-08T14:20:32.299Z,1.50
2018-07-08T14:23:00.996Z,1.33
2018-07-08T14:25:29.716Z,2.00
2018-07-08T14:27:58.376Z,1.50
2018-07-08T14:30:27.038Z,1.30
2018-07-08T14:32:55.682Z,1.43
2018-07-08T14:35:24.471Z,1.27
2018-07-08T14:37:53.294Z,1.30
2018-07-08T14:40:22.071Z,1.40
2018-07-08T14:42:51.871Z,1.40
2018-07-08T14:45:20.611Z,1.50
2018-07-08T14:47:49.829Z,1.63
2018-07-08T14:50:18.737Z,1.50
2018-07-08T14:52:47.514Z,1.60
2018-07-08T14:55:16.607Z,4.23
2018-07-08T14:57:45.249Z,1.50
2018-07-08T15:00:14.072Z,1.50
2018-07-08T15:02:42.978Z,1.33
2018-07-08T15:05:11.830Z,1.53
2018-07-08T15:07:40.696Z,1.30
2018-07-08T15:10:09.468Z,1.87
2018-07-08T15:12:38.289Z,1.63
2018-07-08T15:15:07.930Z,2.10
2018-07-08T15:17:37.019Z,3.70
2018-07-08T15:20:06.072Z,1.57
2018-07-08T15:22:34.746Z,1.53
2018-07-08T15:25:03.576Z,2.10
2018-07-08T15:27:32.804Z,1.40
2018-07-08T15:30:01.912Z,1.73
2018-07-08T15:32:30.725Z,1.87
2018-07-08T15:34:59.623Z,1.93
2018-07-08T15:37:28.542Z,2.17
2018-07-08T15:39:57.503Z,1.77
2018-07-08T15:42:26.278Z,2.30
2018-07-08T15:44:54.838Z,2.07
2018-07-08T15:47:23.822Z,1.53
2018-07-08T15:49:52.564Z,2.37
2018-07-08T15:52:21.933Z,1.60
2018-07-08T15:54:50.752Z,1.67
2018-07-08T15:57:19.554Z,1.77
2018-07-08T15:59:48.368Z,1.50
2018-07-08T16:02:17.131Z,1.90
2018-07-08T16:04:46.048Z,1.93
2018-07-08T16:07:14.836Z,1.63
2018-07-08T16:09:43.774Z,1.70
2018-07-08T16:12:12.827Z,3.77
2018-07-08T16:14:41.649Z,0.97
2018-07-08T16:17:10.408Z,1.37
2018-07-08T16:19:39.179Z,2.10
2018-07-08T16:22:08.373Z,1.60
2018-07-08T16:24:37.327Z,1.60
2018-07-08T16:27:05.956Z,1.60
2018-07-08T16:29:34.892Z,1.70
2018-07-08T16:32:03.679Z,2.33
2018-07-08T16:34:32.500Z,2.07
2018-07-08T16:37:01.279Z,1.37
2018-07-08T16:39:30.063Z,1.70
2018-07-08T16:41:58.913Z,1.73
2018-07-08T16:44:27.781Z,1.53
2018-07-08T16:46:56.747Z,1.30
2018-07-08T16:49:25.567Z,1.60
2018-07-08T16:51:54.481Z,1.63
2018-07-08T16:54:23.415Z,1.40
2018-07-08T16:56:52.255Z,1.47
2018-07-08T16:59:21.142Z,1.80
2018-07-08T17:01:49.997Z,1.60
2018-07-08T17:04:18.621Z,2.30
2018-07-08T17:06:47.297Z,2.13
2018-07-08T17:09:16.258Z,3.30
2018-07-08T17:11:45.181Z,1.87
2018-07-08T17:14:14.051Z,1.83
2018-07-08T17:16:42.841Z,1.50
2018-07-08T17:19:12.392Z,1.50
2018-07-08T17:21:41.137Z,1.70
2018-07-08T17:24:09.878Z,1.80
2018-07-08T17:26:38.689Z,2.70
2018-07-08T17:29:07.531Z,2.00
2018-07-08T17:31:36.442Z,1.37
2018-07-08T17:34:05.440Z,3.27
2018-07-08T17:36:34.338Z,1.80
2018-07-08T17:39:02.807Z,1.33
2018-07-08T17:41:31.554Z,2.20
2018-07-08T17:44:00.408Z,1.87
2018-07-08T17:46:29.238Z,1.83
2018-07-08T17:48:58.699Z,1.50
2018-07-08T17:51:28.075Z,1.50
2018-07-08T17:53:56.993Z,1.80
2018-07-08T17:56:25.878Z,1.47
2018-07-08T17:58:54.939Z,2.43
2018-07-08T18:01:23.980Z,2.00
2018-07-08T18:03:52.905Z,2.23
2018-07-08T18:06:21.956Z,1.40
2018-07-08T18:08:50.860Z,1.70
2018-07-08T18:11:25.373Z,1.37
2018-07-08T18:17:03.412Z,2.87
2018-07-08T18:19:36.954Z,1.87
2018-07-08T18:22:07.193Z,2.00
2018-07-08T18:24:49.942Z,2.00
2018-07-08T18:27:37.476Z,2.17
2018-07-08T18:30:06.399Z,1.73
2018-07-08T18:32:35.425Z,2.30
2018-07-08T18:35:24.026Z,2.33
2018-07-08T18:38:02.527Z,2.70
2018-07-08T18:40:36.445Z,2.17
2018-07-08T18:43:06.230Z,1.80
2018-07-08T18:45:36.500Z,1.70
2018-07-08T18:48:06.689Z,1.70
2018-07-08T18:50:52.947Z,1.63
2018-07-08T18:53:30.585Z,2.67
2018-07-08T18:55:59.554Z,1.87
2018-07-08T18:58:29.728Z,1.57
2018-07-08T19:01:17.223Z,2.87
2018-07-08T19:03:55.338Z,1.50
2018-07-08T19:06:24.090Z,1.80
2018-07-08T19:08:54.025Z,2.00
2018-07-08T19:11:23.722Z,1.83
2018-07-08T19:13:52.474Z,1.80
2018-07-08T19:16:21.334Z,1.67
2018-07-08T19:18:50.284Z,2.10
2018-07-08T19:21:19.210Z,2.00
2018-07-08T19:23:48.288Z,1.97
2018-07-08T19:26:17.290Z,2.73
2018-07-08T19:28:46.435Z,1.73
2018-07-08T19:31:15.415Z,2.20
2018-07-08T19:33:44.263Z,2.27
2018-07-08T19:36:13.941Z,2.33
2018-07-08T19:38:42.598Z,1.87
2018-07-08T19:41:11.516Z,2.83
2018-07-08T19:43:43.194Z,3.50
2018-07-08T19:46:12.074Z,2.00
2018-07-08T19:48:40.901Z,1.90
2018-07-08T19:51:09.783Z,1.93
2018-07-08T19:53:38.197Z,2.13
2018-07-08T19:56:06.988Z,1.80
2018-07-08T19:58:35.816Z,1.70
2018-07-08T20:01:04.751Z,2.00
2018-07-08T20:03:33.577Z,1.57
2018-07-08T20:06:02.570Z,2.43
2018-07-08T20:08:31.472Z,1.90
2018-07-08T20:11:00.614Z,2.07
2018-07-08T20:13:29.718Z,2.30
2018-07-08T20:15:58.606Z,2.13
2018-07-08T20:18:27.331Z,2.07
2018-07-08T20:20:56.298Z,2.03
2018-07-08T20:23:25.346Z,1.73
2018-07-08T20:26:01.275Z,2.27
2018-07-08T20:28:30.092Z,2.07
2018-07-08T20:31:05.876Z,1.97
2018-07-08T20:33:35.297Z,2.30
2018-07-08T20:36:04.162Z,2.53
2018-07-08T20:38:32.991Z,2.07
2018-07-08T20:41:01.662Z,2.40
2018-07-08T20:43:30.598Z,2.83
2018-07-08T20:45:59.627Z,2.60
2018-07-08T20:48:28.631Z,3.80
2018-07-08T20:50:57.630Z,2.57
2018-07-08T20:53:26.617Z,2.40
2018-07-08T20:55:55.664Z,2.70
2018-07-08T20:58:24.807Z,2.10
2018-07-08T21:00:54.100Z,1.60
2018-07-08T21:03:23.123Z,2.87
2018-07-08T21:05:52.099Z,3.07
2018-07-08T21:08:21.152Z,1.97
2018-07-08T21:10:49.790Z,2.30
2018-07-08T21:13:18.702Z,2.17
2018-07-08T21:15:47.736Z,2.30
2018-07-08T21:18:27.078Z,2.20
2018-07-08T21:21:08.668Z,2.90
2018-07-08T21:26:27.001Z,3.00
2018-07-08T21:32:17.382Z,2.70
2018-07-08T21:40:30.254Z,2.60
2018-07-08T21:43:36.367Z,2.90
2018-07-08T21:46:41.434Z,2.17
2018-07-08T21:51:50.503Z,2.23
2018-07-08T21:54:19.302Z,2.50
2018-07-08T21:56:47.960Z,2.10
2018-07-08T21:59:17.861Z,2.23
2018-07-08T22:02:09.618Z,2.27
2018-07-08T22:04:38.586Z,2.53
2018-07-08T22:07:12.429Z,2.53
2018-07-08T22:09:41.092Z,2.77
2018-07-08T22:12:10.350Z,2.60
2018-07-08T22:14:39.385Z,2.40
2018-07-08T22:17:08.500Z,2.50
2018-07-08T22:19:38.129Z,2.50
2018-07-08T22:22:06.956Z,2.20
2018-07-08T22:24:36.300Z,2.07
2018-07-08T22:27:05.315Z,2.00
2018-07-08T22:29:34.420Z,2.43
2018-07-08T22:32:03.326Z,2.30
2018-07-08T22:34:32.115Z,1.73
2018-07-08T22:37:02.066Z,2.57
2018-07-08T22:39:30.827Z,2.57
2018-07-08T22:41:59.508Z,2.40
2018-07-08T22:44:28.334Z,3.00
2018-07-08T22:46:57.128Z,2.90
2018-07-08T22:49:25.809Z,2.50
2018-07-08T22:51:54.515Z,3.13
2018-07-08T22:54:23.339Z,3.13
2018-07-08T22:56:52.057Z,2.00
2018-07-08T22:59:20.723Z,2.20
2018-07-08T23:02:00.417Z,2.40
2018-07-08T23:04:29.142Z,2.10
2018-07-08T23:06:57.840Z,2.23
2018-07-08T23:09:26.619Z,2.80
2018-07-08T23:11:55.306Z,2.63
2018-07-08T23:14:24.194Z,1.90
2018-07-08T23:16:52.913Z,2.90
2018-07-08T23:19:21.779Z,3.10
2018-07-08T23:21:50.465Z,2.53
2018-07-08T23:24:19.151Z,2.30
2018-07-08T23:26:47.885Z,3.00
2018-07-08T23:29:16.917Z,2.60
2018-07-08T23:31:45.683Z,2.50
2018-07-08T23:34:14.527Z,2.90
2018-07-08T23:36:43.275Z,2.37
2018-07-08T23:39:12.226Z,2.33
2018-07-08T23:41:41.202Z,2.33
2018-07-08T23:44:10.179Z,2.87
2018-07-08T23:46:38.793Z,2.80
2018-07-08T23:49:07.667Z,2.27
2018-07-08T23:51:36.724Z,3.22
2018-07-08T23:54:05.564Z,2.92
2018-07-08T23:56:34.281Z,2.98
2018-07-08T23:59:02.928Z,2.72
